createdAt,value
2022-10-24T00:00:02.219Z,22.35
2022-10-24T00:02:54.403Z,20.05
2022-10-24T00:05:23.751Z,20.63
2022-10-24T00:07:53.749Z,20.80
2022-10-24T00:10:24.587Z,22.65
2022-10-24T00:12:55.538Z,22.25
2022-10-24T00:15:24.772Z,23.92
2022-10-24T00:17:54.494Z,23.98
2022-10-24T00:20:24.000Z,24.40
2022-10-24T00:22:53.648Z,22.17
2022-10-24T00:25:24.385Z,22.70
2022-10-24T00:27:53.946Z,21.75
2022-10-24T00:30:23.279Z,22.90
2022-10-24T00:32:53.111Z,24.52
2022-10-24T00:35:22.727Z,22.65
2022-10-24T00:37:52.318Z,23.23
2022-10-24T00:40:23.940Z,24.00
2022-10-24T00:42:53.526Z,21.33
2022-10-24T00:45:50.852Z,22.42
2022-10-24T00:48:25.865Z,22.38
2022-10-24T00:50:58.176Z,24.15
2022-10-24T00:53:30.983Z,25.65
2022-10-24T00:56:04.798Z,24.70
2022-10-24T00:58:36.738Z,25.90
2022-10-24T01:01:09.155Z,25.20
2022-10-24T01:03:39.121Z,23.60
2022-10-24T01:06:24.839Z,26.80
2022-10-24T01:09:05.657Z,26.77
2022-10-24T01:11:50.206Z,25.40
2022-10-24T01:14:29.261Z,25.00
2022-10-24T01:17:08.722Z,24.80
2022-10-24T01:20:23.380Z,22.73
2022-10-24T01:23:24.834Z,22.58
2022-10-24T01:26:12.065Z,20.83
2022-10-24T01:28:54.883Z,20.20
2022-10-24T01:31:30.340Z,22.25
2022-10-24T01:34:05.350Z,21.75
2022-10-24T01:36:40.904Z,19.02
2022-10-24T01:39:16.149Z,20.52
2022-10-24T01:41:48.511Z,18.65
2022-10-24T01:44:23.021Z,17.17
2022-10-24T01:46:59.384Z,16.00
2022-10-24T01:49:32.689Z,16.05
2022-10-24T01:52:05.449Z,15.38
2022-10-24T01:54:35.950Z,15.10
2022-10-24T01:57:05.859Z,14.80
2022-10-24T01:59:48.969Z,14.85
2022-10-24T02:02:23.543Z,16.77
2022-10-24T02:04:57.372Z,16.50
2022-10-24T02:07:29.851Z,17.48
2022-10-24T02:10:03.807Z,15.90
2022-10-24T02:12:35.876Z,17.55
2022-10-24T02:15:12.163Z,17.58
2022-10-24T02:17:43.481Z,17.10
2022-10-24T02:20:13.585Z,16.65
2022-10-24T02:22:51.488Z,19.30
2022-10-24T02:25:25.669Z,18.55
2022-10-24T02:28:01.756Z,16.83
2022-10-24T02:35:56.626Z,18.90
2022-10-24T02:38:30.197Z,23.00
2022-10-24T02:41:02.629Z,19.88
2022-10-24T02:43:33.783Z,17.70
2022-10-24T02:46:04.613Z,21.63
2022-10-24T02:48:39.962Z,22.05
2022-10-24T02:51:11.599Z,21.50
2022-10-24T02:53:41.838Z,19.55
2022-10-24T02:56:11.228Z,21.00
2022-10-24T02:58:40.703Z,22.02
2022-10-24T03:01:10.194Z,20.77
2022-10-24T03:03:39.881Z,20.48
2022-10-24T03:06:10.859Z,21.75
2022-10-24T03:08:40.501Z,18.90
2022-10-24T03:11:10.141Z,20.08
2022-10-24T03:13:39.616Z,19.00
2022-10-24T03:16:11.708Z,20.33
2022-10-24T03:18:44.041Z,21.67
2022-10-24T03:21:14.678Z,20.67
2022-10-24T03:23:44.383Z,19.88
2022-10-24T03:26:13.606Z,21.90
2022-10-24T03:28:43.212Z,21.35
2022-10-24T03:31:12.575Z,21.20
2022-10-24T03:33:42.235Z,19.65
2022-10-24T03:36:11.508Z,22.27
2022-10-24T03:38:42.279Z,20.92
2022-10-24T03:41:11.870Z,25.25
2022-10-24T03:43:41.368Z,21.17
2022-10-24T03:46:10.781Z,26.70
2022-10-24T03:48:40.293Z,27.60
2022-10-24T03:51:09.593Z,26.00
2022-10-24T03:53:39.167Z,22.17
2022-10-24T03:56:10.505Z,21.88
2022-10-24T03:58:40.110Z,22.92
2022-10-24T04:01:10.407Z,23.83
2022-10-24T04:03:39.873Z,22.83
2022-10-24T04:06:09.532Z,22.63
2022-10-24T04:08:40.208Z,20.67
2022-10-24T04:11:11.564Z,20.50
2022-10-24T04:13:41.823Z,19.65
2022-10-24T04:16:11.590Z,22.90
2022-10-24T04:18:41.076Z,20.15
2022-10-24T04:21:10.781Z,20.17
2022-10-24T04:23:41.290Z,22.73
2022-10-24T04:26:13.620Z,20.17
2022-10-24T04:28:43.934Z,20.05
2022-10-24T04:31:13.572Z,20.02
2022-10-24T04:33:43.448Z,19.73
2022-10-24T04:36:12.633Z,19.83
2022-10-24T04:38:42.820Z,20.05
2022-10-24T04:41:13.977Z,20.25
2022-10-24T04:43:43.533Z,21.00
2022-10-24T04:46:13.006Z,20.70
2022-10-24T04:48:42.508Z,20.58
2022-10-24T04:51:12.034Z,21.20
2022-10-24T04:53:41.755Z,20.40
2022-10-24T04:56:12.668Z,20.50
2022-10-24T04:58:42.185Z,22.38
2022-10-24T05:01:11.569Z,21.38
2022-10-24T05:03:41.199Z,20.85
2022-10-24T05:06:10.760Z,28.60
2022-10-24T05:08:40.302Z,24.77
2022-10-24T05:11:11.626Z,23.85
2022-10-24T05:13:42.996Z,22.60
2022-10-24T05:16:12.357Z,22.70
2022-10-24T05:18:41.972Z,24.17
2022-10-24T05:21:11.322Z,21.17
2022-10-24T05:23:40.909Z,24.30
2022-10-24T05:26:10.183Z,23.08
2022-10-24T05:28:39.692Z,23.38
2022-10-24T05:31:10.525Z,22.38
2022-10-24T05:33:39.922Z,24.13
2022-10-24T05:36:09.897Z,25.40
2022-10-24T05:38:39.428Z,23.90
2022-10-24T05:41:08.845Z,22.75
2022-10-24T05:43:38.388Z,28.83
2022-10-24T05:46:10.217Z,25.15
2022-10-24T05:48:40.062Z,24.60
2022-10-24T05:51:09.439Z,22.42
2022-10-24T05:53:39.040Z,22.48
2022-10-24T05:56:08.472Z,24.55
2022-10-24T05:58:38.073Z,27.45
2022-10-24T06:01:07.580Z,22.55
2022-10-24T06:03:39.718Z,23.35
2022-10-24T06:06:10.763Z,25.25
2022-10-24T06:08:40.716Z,23.13
2022-10-24T06:11:12.298Z,23.98
2022-10-24T06:13:41.991Z,23.77
2022-10-24T06:16:13.515Z,23.58
2022-10-24T06:18:44.549Z,23.33
2022-10-24T06:21:15.993Z,23.05
2022-10-24T06:23:45.402Z,23.27
2022-10-24T06:26:14.791Z,23.65
2022-10-24T06:28:45.018Z,22.65
2022-10-24T06:31:15.129Z,21.92
2022-10-24T06:33:45.942Z,22.70
2022-10-24T06:36:15.323Z,21.95
2022-10-24T06:38:44.764Z,21.95
2022-10-24T06:41:17.155Z,22.27
2022-10-24T06:43:48.820Z,22.25
2022-10-24T06:46:23.238Z,22.13
2022-10-24T06:48:57.131Z,21.92
2022-10-24T06:51:26.977Z,21.85
2022-10-24T06:53:56.434Z,24.40
2022-10-24T06:56:25.849Z,24.35
2022-10-24T06:58:55.398Z,24.50
2022-10-24T07:01:26.611Z,23.30
2022-10-24T07:03:57.561Z,23.70
2022-10-24T07:06:30.054Z,22.77
2022-10-24T07:09:01.817Z,22.55
2022-10-24T07:11:31.396Z,24.27
2022-10-24T07:14:02.615Z,22.48
2022-10-24T07:16:33.751Z,24.67
2022-10-24T07:19:05.312Z,22.10
2022-10-24T07:21:35.869Z,23.08
2022-10-24T07:24:06.645Z,22.88
2022-10-24T07:26:36.056Z,23.23
2022-10-24T07:29:05.935Z,25.15
2022-10-24T07:31:36.844Z,23.73
2022-10-24T07:34:09.530Z,22.63
2022-10-24T07:36:42.837Z,22.02
2022-10-24T07:39:14.443Z,24.23
2022-10-24T07:41:44.194Z,23.60
2022-10-24T07:44:13.725Z,23.35
2022-10-24T07:46:43.950Z,22.50
2022-10-24T07:49:15.164Z,23.10
2022-10-24T07:51:44.525Z,24.63
2022-10-24T07:54:15.215Z,23.83
2022-10-24T07:56:44.445Z,23.75
2022-10-24T07:59:37.113Z,22.20
2022-10-24T08:02:03.344Z,21.17
2022-10-24T08:04:34.487Z,21.70
2022-10-24T08:07:03.718Z,21.85
2022-10-24T08:09:33.161Z,24.20
2022-10-24T08:12:02.427Z,23.60
2022-10-24T08:14:31.993Z,23.17
2022-10-24T08:17:01.331Z,23.83
2022-10-24T08:19:30.952Z,22.98
2022-10-24T08:22:02.120Z,23.83
2022-10-24T08:24:31.609Z,22.60
2022-10-24T08:27:01.677Z,22.50
2022-10-24T08:29:31.207Z,22.02
2022-10-24T08:32:01.704Z,21.55
2022-10-24T08:34:31.339Z,23.38
2022-10-24T08:37:02.102Z,22.90
2022-10-24T08:39:31.604Z,21.25
2022-10-24T08:42:05.019Z,21.63
2022-10-24T08:44:38.183Z,21.63
2022-10-24T08:47:14.388Z,21.42
2022-10-24T08:49:50.700Z,22.88
2022-10-24T08:52:31.705Z,20.70
2022-10-24T08:55:20.256Z,22.05
2022-10-24T08:57:57.195Z,21.33
2022-10-24T09:00:31.817Z,20.20
2022-10-24T09:03:07.850Z,20.17
2022-10-24T09:05:41.468Z,21.83
2022-10-24T09:08:24.032Z,20.83
2022-10-24T09:10:58.791Z,21.83
2022-10-24T09:13:29.555Z,22.27
2022-10-24T09:15:59.553Z,22.48
2022-10-24T09:18:34.185Z,21.10
2022-10-24T09:21:06.569Z,21.17
2022-10-24T09:23:38.538Z,22.20
2022-10-24T09:26:15.366Z,21.17
2022-10-24T09:28:45.446Z,20.88
2022-10-24T09:31:18.171Z,20.60
2022-10-24T09:33:49.468Z,22.60
2022-10-24T09:36:21.188Z,19.83
2022-10-24T09:38:52.515Z,20.10
2022-10-24T09:41:25.845Z,21.85
2022-10-24T09:43:56.679Z,23.10
2022-10-24T09:46:28.400Z,21.58
2022-10-24T09:49:01.324Z,20.58
2022-10-24T09:51:34.730Z,20.60
2022-10-24T09:54:24.673Z,21.77
2022-10-24T09:56:58.651Z,22.17
2022-10-24T09:59:37.861Z,18.85
2022-10-24T10:02:26.024Z,21.15
2022-10-24T10:05:29.080Z,18.85
2022-10-24T10:08:01.025Z,18.92
2022-10-24T10:10:37.790Z,19.13
2022-10-24T10:13:20.166Z,19.35
2022-10-24T10:15:51.616Z,19.38
2022-10-24T10:18:33.271Z,19.85
2022-10-24T10:21:12.170Z,20.15
2022-10-24T10:23:43.727Z,20.45
2022-10-24T10:26:22.254Z,19.20
2022-10-24T10:29:02.078Z,19.83
2022-10-24T10:31:40.783Z,19.80
2022-10-24T10:34:26.705Z,21.20
2022-10-24T10:37:10.924Z,19.90
2022-10-24T10:39:55.977Z,20.60
2022-10-24T10:42:36.150Z,20.58
2022-10-24T10:45:20.821Z,22.05
2022-10-24T10:48:05.472Z,21.95
2022-10-24T10:50:40.017Z,22.50
2022-10-24T10:53:31.325Z,21.90
2022-10-24T10:56:09.672Z,23.35
2022-10-24T10:58:50.323Z,25.42
2022-10-24T11:01:28.337Z,24.15
2022-10-24T11:04:07.657Z,23.95
2022-10-24T11:06:47.198Z,25.38
2022-10-24T11:09:44.337Z,24.85
2022-10-24T11:12:20.285Z,54.10
2022-10-24T11:14:56.539Z,27.48
2022-10-24T11:17:29.323Z,23.10
2022-10-24T11:20:11.836Z,24.00
2022-10-24T11:22:48.649Z,23.33
2022-10-24T11:25:26.371Z,23.55
2022-10-24T11:28:04.098Z,24.40
2022-10-24T11:30:46.522Z,23.80
2022-10-24T11:33:22.055Z,19.77
2022-10-24T11:38:46.662Z,19.30
2022-10-24T11:41:34.403Z,22.35
2022-10-24T11:44:16.857Z,22.08
2022-10-24T11:46:54.013Z,21.27
2022-10-24T11:49:27.289Z,21.95
2022-10-24T11:52:00.785Z,20.17
2022-10-24T11:54:36.250Z,21.23
2022-10-24T11:59:42.437Z,21.65
2022-10-24T12:03:00.793Z,21.50
2022-10-24T12:05:59.439Z,19.95
2022-10-24T12:09:05.528Z,21.13
2022-10-24T12:11:55.200Z,20.90
2022-10-24T12:14:53.054Z,21.27
2022-10-24T12:17:42.112Z,22.85
2022-10-24T12:20:19.106Z,21.98
2022-10-24T12:22:51.275Z,23.77
2022-10-24T12:25:28.939Z,22.35
2022-10-24T12:28:00.221Z,21.33
2022-10-24T12:30:31.889Z,24.00
2022-10-24T12:33:11.828Z,23.15
2022-10-24T12:35:59.186Z,23.70
2022-10-24T12:39:11.561Z,23.70
2022-10-24T12:41:45.897Z,25.08
2022-10-24T12:44:46.925Z,24.42
2022-10-24T12:47:31.655Z,25.42
2022-10-24T12:50:16.855Z,27.53
2022-10-24T12:53:07.270Z,30.08
2022-10-24T12:56:24.396Z,31.00
2022-10-24T12:59:17.444Z,26.50
2022-10-24T13:01:47.908Z,27.75
2022-10-24T13:04:45.540Z,25.73
2022-10-24T13:07:48.658Z,26.38
2022-10-24T13:10:45.997Z,25.55
2022-10-24T13:13:43.152Z,23.60
2022-10-24T13:16:23.578Z,24.70
2022-10-24T13:19:05.392Z,24.05
2022-10-24T13:21:37.440Z,24.35
2022-10-24T13:24:23.381Z,25.02
2022-10-24T13:27:15.583Z,23.83
2022-10-24T13:30:24.310Z,18.83
2022-10-24T13:33:41.280Z,19.90
2022-10-24T13:36:21.276Z,20.15
2022-10-24T13:38:56.397Z,19.73
2022-10-24T13:41:32.584Z,18.23
2022-10-24T13:44:07.210Z,18.15
2022-10-24T13:46:43.542Z,18.65
2022-10-24T13:49:21.964Z,17.92
2022-10-24T13:51:56.474Z,16.70
2022-10-24T13:54:29.545Z,18.33
2022-10-24T13:57:01.990Z,16.35
2022-10-24T13:59:34.715Z,16.55
2022-10-24T14:02:07.043Z,18.25
2022-10-24T14:04:39.903Z,19.00
2022-10-24T14:07:10.916Z,18.00
2022-10-24T14:09:44.946Z,18.90
2022-10-24T14:12:21.905Z,18.98
2022-10-24T14:14:54.260Z,19.13
2022-10-24T14:17:26.989Z,17.20
2022-10-24T14:19:59.663Z,17.35
2022-10-24T14:22:32.003Z,17.55
2022-10-24T14:25:01.346Z,19.83
2022-10-24T14:27:31.631Z,20.52
2022-10-24T14:30:03.376Z,20.98
2022-10-24T14:32:33.648Z,20.05
2022-10-24T14:35:04.795Z,22.38
2022-10-24T14:37:37.436Z,19.80
2022-10-24T14:40:12.183Z,19.73
2022-10-24T14:42:41.867Z,20.00
2022-10-24T14:45:25.021Z,20.13
2022-10-24T14:47:56.531Z,19.45
2022-10-24T14:50:39.155Z,19.63
2022-10-24T14:53:21.498Z,19.63
2022-10-24T14:55:52.962Z,20.40
2022-10-24T14:58:28.175Z,19.52
2022-10-24T15:00:58.679Z,17.85
2022-10-24T15:03:29.718Z,19.80
2022-10-24T15:06:08.972Z,18.80
2022-10-24T15:11:21.940Z,18.25
2022-10-24T15:14:06.625Z,16.98
2022-10-24T15:16:39.632Z,16.52
2022-10-24T15:19:17.845Z,16.30
2022-10-24T15:21:49.188Z,16.58
2022-10-24T15:24:24.359Z,17.88
2022-10-24T15:26:54.244Z,18.02
2022-10-24T15:29:24.605Z,18.65
2022-10-24T15:31:54.273Z,16.25
2022-10-24T15:34:27.364Z,16.80
2022-10-24T15:36:58.120Z,17.52
2022-10-24T15:39:27.910Z,19.85
2022-10-24T15:41:58.723Z,35.20
2022-10-24T15:44:33.686Z,26.85
2022-10-24T15:47:03.015Z,17.95
2022-10-24T15:49:32.797Z,20.77
2022-10-24T15:52:07.001Z,20.33
2022-10-24T15:54:36.592Z,22.52
2022-10-24T15:57:06.328Z,30.70
2022-10-24T15:59:36.801Z,32.03
2022-10-24T16:02:06.428Z,19.80
2022-10-24T16:04:40.271Z,23.00
2022-10-24T16:07:11.953Z,23.13
2022-10-24T16:09:42.093Z,20.42
2022-10-24T16:12:14.102Z,22.92
2022-10-24T16:14:46.057Z,22.27
2022-10-24T16:17:15.489Z,24.02
2022-10-24T16:19:44.946Z,84.22
2022-10-24T16:22:16.630Z,46.63
2022-10-24T16:24:46.269Z,118.22
2022-10-24T16:27:15.744Z,26.00
2022-10-24T16:29:45.252Z,85.35
2022-10-24T16:32:14.627Z,121.57
2022-10-24T16:34:48.862Z,47.28
2022-10-24T16:37:21.734Z,152.77
2022-10-24T16:39:51.383Z,99.30
2022-10-24T16:42:22.526Z,153.95
2022-10-24T16:44:52.111Z,58.08
2022-10-24T16:47:21.708Z,114.35
2022-10-24T16:49:51.159Z,56.55
2022-10-24T16:52:22.331Z,61.33
2022-10-24T16:54:53.315Z,32.55
2022-10-24T16:59:58.063Z,21.08
2022-10-24T17:02:27.486Z,27.25
2022-10-24T17:04:56.997Z,20.92
2022-10-24T17:07:27.634Z,23.75
2022-10-24T17:09:57.388Z,23.25
2022-10-24T17:12:27.629Z,20.80
2022-10-24T17:14:57.232Z,21.40
2022-10-24T17:17:26.544Z,24.63
2022-10-24T17:19:58.685Z,23.30
2022-10-24T17:22:30.212Z,19.85
2022-10-24T17:25:00.165Z,20.58
2022-10-24T17:27:29.870Z,22.02
2022-10-24T17:29:59.980Z,23.25
2022-10-24T17:32:29.507Z,22.88
2022-10-24T17:35:00.447Z,23.60
2022-10-24T17:37:46.832Z,24.48
2022-10-24T17:40:19.460Z,21.30
2022-10-24T17:42:49.459Z,23.38
2022-10-24T17:45:21.578Z,27.05
2022-10-24T17:47:51.339Z,25.75
2022-10-24T17:50:21.039Z,23.90
2022-10-24T17:52:52.258Z,25.83
2022-10-24T17:58:13.309Z,24.80
2022-10-24T18:00:43.125Z,25.75
2022-10-24T18:03:12.688Z,27.77
2022-10-24T18:05:42.527Z,25.85
2022-10-24T18:08:14.501Z,27.42
2022-10-24T18:10:44.342Z,27.20
2022-10-24T18:13:13.797Z,26.30
2022-10-24T18:15:43.696Z,27.02
2022-10-24T18:18:13.158Z,26.00
2022-10-24T18:20:42.733Z,25.92
2022-10-24T18:23:13.538Z,24.77
2022-10-24T18:25:43.305Z,25.15
2022-10-24T18:28:12.927Z,24.73
2022-10-24T18:30:42.481Z,27.95
2022-10-24T18:33:12.054Z,37.95
2022-10-24T18:35:41.783Z,38.85
2022-10-24T18:38:12.418Z,32.30
2022-10-24T18:40:42.730Z,36.17
2022-10-24T18:43:14.606Z,28.02
2022-10-24T18:45:45.469Z,28.35
2022-10-24T18:48:15.969Z,29.50
2022-10-24T18:50:50.039Z,29.33
2022-10-24T18:53:25.455Z,28.30
2022-10-24T18:58:24.951Z,27.17
2022-10-24T19:00:59.093Z,30.45
2022-10-24T19:03:33.723Z,32.97
2022-10-24T19:06:18.674Z,38.05
2022-10-24T19:08:49.693Z,35.85
2022-10-24T19:11:19.501Z,33.80
2022-10-24T19:13:49.203Z,31.83
2022-10-24T19:16:24.120Z,32.80
2022-10-24T19:18:58.513Z,30.30
2022-10-24T19:21:28.375Z,30.30
2022-10-24T19:24:02.704Z,32.15
2022-10-24T19:26:32.233Z,32.67
2022-10-24T19:29:03.636Z,36.10
2022-10-24T19:31:35.431Z,32.30
2022-10-24T19:34:04.992Z,32.63
2022-10-24T19:36:36.056Z,30.98
2022-10-24T19:39:07.627Z,34.67
2022-10-24T19:41:37.764Z,33.97
2022-10-24T19:44:07.320Z,31.17
2022-10-24T19:46:36.816Z,31.70
2022-10-24T19:49:06.064Z,30.80
2022-10-24T19:51:35.514Z,40.05
2022-10-24T19:54:06.320Z,32.75
2022-10-24T19:56:35.764Z,34.25
2022-10-24T19:59:04.996Z,32.22
2022-10-24T20:01:34.590Z,32.10
2022-10-24T20:04:04.190Z,35.90
2022-10-24T20:06:33.919Z,33.67
2022-10-24T20:09:03.513Z,30.58
2022-10-24T20:11:34.378Z,34.00
2022-10-24T20:14:03.896Z,33.88
2022-10-24T20:16:36.522Z,32.90
2022-10-24T20:19:06.474Z,32.58
2022-10-24T20:21:37.700Z,33.00
2022-10-24T20:24:07.808Z,32.03
2022-10-24T20:26:38.777Z,34.08
2022-10-24T20:29:08.052Z,34.53
2022-10-24T20:31:39.589Z,34.30
2022-10-24T20:34:10.053Z,35.50
2022-10-24T20:36:42.321Z,34.38
2022-10-24T20:39:12.302Z,35.47
2022-10-24T20:41:43.766Z,34.08
2022-10-24T20:44:16.131Z,31.33
2022-10-24T20:46:48.177Z,31.25
2022-10-24T20:49:17.550Z,29.77
2022-10-24T20:51:47.069Z,32.13
2022-10-24T20:54:16.529Z,29.75
2022-10-24T20:56:55.074Z,29.73
2022-10-24T20:59:26.065Z,28.20
2022-10-24T21:01:55.856Z,27.40
2022-10-24T21:04:25.405Z,26.45
2022-10-24T21:06:54.907Z,26.88
2022-10-24T21:09:24.325Z,24.85
2022-10-24T21:11:55.444Z,23.75
2022-10-24T21:14:24.935Z,24.80
2022-10-24T21:16:54.477Z,25.55
2022-10-24T21:19:23.827Z,24.70
2022-10-24T21:21:53.844Z,25.02
2022-10-24T21:24:23.279Z,24.33
2022-10-24T21:26:54.190Z,23.40
2022-10-24T21:29:38.599Z,23.85
2022-10-24T21:32:08.249Z,21.38
2022-10-24T21:34:37.459Z,20.27
2022-10-24T21:37:07.456Z,23.45
2022-10-24T21:39:36.865Z,19.90
2022-10-24T21:42:07.850Z,22.00
2022-10-24T21:44:37.393Z,22.92
2022-10-24T21:47:07.056Z,22.33
2022-10-24T21:49:36.311Z,21.13
2022-10-24T21:52:06.160Z,20.05
2022-10-24T21:54:35.777Z,19.55
2022-10-24T21:57:06.685Z,19.15
2022-10-24T21:59:36.215Z,19.45
2022-10-24T22:02:05.947Z,18.02
2022-10-24T22:04:35.898Z,18.92
2022-10-24T22:07:06.055Z,18.40
2022-10-24T22:09:35.583Z,16.73
2022-10-24T22:12:07.025Z,15.80
2022-10-24T22:14:36.491Z,18.08
2022-10-24T22:17:06.024Z,16.42
2022-10-24T22:19:35.383Z,15.40
2022-10-24T22:22:05.071Z,14.75
2022-10-24T22:24:34.542Z,15.25
2022-10-24T22:27:04.167Z,14.63
2022-10-24T22:29:35.045Z,14.18
2022-10-24T22:32:05.443Z,15.50
2022-10-24T22:34:35.492Z,13.73
2022-10-24T22:37:17.438Z,12.32
2022-10-24T22:39:47.506Z,12.95
2022-10-24T22:42:20.143Z,13.50
2022-10-24T22:44:52.476Z,11.80
2022-10-24T22:47:45.826Z,12.65
2022-10-24T22:50:31.641Z,11.85
2022-10-24T22:55:35.275Z,11.68
2022-10-24T22:58:05.555Z,11.93
2022-10-24T23:00:37.195Z,11.98
2022-10-24T23:03:23.508Z,10.55
2022-10-24T23:05:59.272Z,10.95
2022-10-24T23:08:37.921Z,12.32
2022-10-24T23:11:10.285Z,11.50
2022-10-24T23:13:40.610Z,11.13
2022-10-24T23:16:21.852Z,11.75
2022-10-24T23:18:51.971Z,11.05
2022-10-24T23:21:28.048Z,10.93
2022-10-24T23:23:58.183Z,11.35
2022-10-24T23:26:37.179Z,10.38
2022-10-24T23:29:12.777Z,10.68
2022-10-24T23:31:44.233Z,10.13
2022-10-24T23:34:14.692Z,9.90
2022-10-24T23:36:46.472Z,10.75
2022-10-24T23:39:16.923Z,10.50
2022-10-24T23:41:47.140Z,10.30
2022-10-24T23:44:17.325Z,9.77
2022-10-24T23:46:54.832Z,9.98
2022-10-24T23:49:31.593Z,10.15
2022-10-24T23:52:12.053Z,10.88
2022-10-24T23:54:42.187Z,10.23
2022-10-24T23:57:17.162Z,10.23
2022-10-24T23:59:47.071Z,9.80
